Suances, Spain
Current Conditions -  °F | °C
As of 9:30 PM on Friday 21 Nov 2014 (Local Time) from LEXJ Reporting Station
Clear Clear  
Wind Chill: 64°   Ceiling: Unl
Heat Index: 64°   Visibility: 6mi
Dew Point: 50°   Wind: 1mph
Humidity: 59%   Direction: 220°SW
Pressure: 29.88"   Gusts: NA
Location:  43.43°N, 4.04°W
Report Text: LEXJ 212030Z 22001KT CAVOK 18/10 Q1012
Loading
Personal Weather Stations






























Interactive Weather Map New forecast layout! Learn more

10-Day Weather Forecast

Advertisements
Track Severe Weather on mobile